Terminal Aerodrome Forecast
Issued by NWS San Angelo, TX

Home | Current Version | Previous Version | Text Only | Print | Product List | Glossary On
Versions: 1 2 3 4 5 6 7 8 9 10 11 12 13 14 15 16 17 18 19 20 21 22 23
769
FTUS44 KSJT 220530
TAFABI
TAF
KABI 220530Z 2206/2306 13005KT P6SM SKC
     FM221000 13004KT P6SM BKN015
     FM221500 15008KT P6SM BKN025
     FM221800 17009KT P6SM BKN050
     FM222000 16009KT P6SM SCT250=

USA.gov is the U.S. government's official web portal to all federal, state and local government web resources and services.